x

Halibut Bank (46146) Wave Buoy

1:00am - Wed 6th May 2015 All times are PDT. -7 hours from GMT.

  • Sig Wave height 0.3ft
  • Peak Period 2s
  • Wind
    4mph
  • Sea Temp 54°f
  • 空気 Temp 50°f
  • Sea Pressure 1019.5mb
  • Halibut Bank
  • Halibut Bank

More Historic Weather Station data

Upgrade to MSW Pro to gain access to the past 30 days of data for over 8000 Wavebouys and Weather Stations around the globe.

Join Pro

Comparision Forecast

View Surf forecast
   
Wed 05/06 1:00am 0.3ft 2s 4
mph
1019.5mb 54f 50f
12:00am 0.3ft 2s 2 4 mph 1019.4mb 55f 51f
Tue 05/05 11:00pm 0.7ft 6s 4 7 mph 1019.2mb 55f 51f
10:00pm 0.3ft 4s 2 4 mph 1018.9mb 55f 53f
9:00pm 0.3ft 4s 4
mph
1018.5mb 55f 53f
8:00pm 0.3ft 4s 2
mph
1017.9mb 55f 53f
7:00pm 0.3ft 6s 4
mph
1017.9mb 55f 54f
6:00pm 0.3ft 6s 2 4 mph 1017.8mb 56f 54f
5:00pm 0.3ft 3s 9 11 mph 1017.7mb 56f 53f
4:00pm 0.3ft 6s 9
mph
1017.6mb 56f 53f
3:00pm 0.3ft 2s 7 9 mph 1017.6mb 56f 53f
2:00pm 0.7ft 6s 9 11 mph 1017.6mb 55f 52f
1:00pm 0.7ft 6s 7 9 mph 1017.5mb 55f 51f
12:00pm 0.7ft 6s 4 7 mph 1017.2mb 55f 51f
11:00am 0.3ft 2s 4 7 mph 1016.6mb 55f 51f
10:00am 0.7ft 3s 4 7 mph 1015.9mb 54f 51f
9:00am 0.7ft 3s 2 4 mph 1015.3mb 54f 51f
8:00am 0.7ft 6s 4 7 mph 1014.5mb 54f 50f
7:00am 0.7ft 3s 2 4 mph 1013.8mb 54f 50f
6:00am 0.7ft 3s 7 9 mph 1013.5mb 53f 50f
5:00am 1ft 3s  -  2 mph 1013.3mb 53f 50f
4:00am 1ft 3s 4 7 mph 1013.3mb 53f 50f
3:00am 1ft 3s 9 11 mph 1013.2mb 53f 50f
2:00am 1ft 2s 4 9 mph 1013.3mb 53f 50f
1:00am 0.7ft 3s 9 11 mph 1013mb 53f 52f
12:00am 1ft 3s 9 11 mph 1012.9mb 53f 52f
Mon 05/04 11:00pm 1ft 3s 7 9 mph 1012.7mb 54f 53f
10:00pm 1ft 3s 7 9 mph 1012.6mb 54f 53f
9:00pm 1.3ft 3s 9 13 mph 1012.4mb 54f 54f
8:00pm 1.3ft 3s 9 11 mph 1012.2mb 54f 54f
7:00pm 1.3ft 3s 11 16 mph 1012.4mb 55f 55f
6:00pm 1.3ft 3s 4 7 mph 1012.5mb 54f 55f
5:00pm 1.6ft 3s 13 16 mph 1012.3mb 55f 55f
4:00pm 1.6ft 3s 13 18 mph 1011.9mb 54f 57f
3:00pm 1.6ft 3s 16 20 mph 1011.9mb 54f 56f
2:00pm 1.6ft 4s 13 16 mph 1011.8mb 54f 55f
1:00pm 2ft 4s 16 18 mph 1011.7mb 54f 54f
12:00pm 2ft 4s 13 16 mph 1011.5mb 54f 54f
11:00am 2.5ft 4s 13 18 mph 1011.4mb 54f 53f
10:00am 2.5ft 4s 20 22 mph 1010.6mb 54f 53f
9:00am 2ft 3s 18 22 mph 1010.2mb 53f 53f
8:00am 1.6ft 4s 20 22 mph 1009.8mb 53f 53f
7:00am 1.6ft 3s 18 22 mph 1009.7mb 53f 54f
6:00am 1ft 3s 18 20 mph 1009.8mb 53f 54f
5:00am 1ft 2s 13
mph
1010.1mb 53f 54f
4:00am 1ft 2s 13
mph
1010.3mb 54f 54f
3:00am 0.3ft 2s 13 16 mph 1010.2mb 54f 54f
2:00am 0.7ft 2s 7
mph
1010.6mb 54f 54f
1:00am 0.3ft 4s 9
mph
1011mb 55f 55f
12:00am 0.3ft 4s 9
mph
1011.1mb 56f 56f
Sun 05/03 11:00pm 0.3ft 5s 2 4 mph 1011.4mb 56f 55f
10:00pm 0.3ft 3s 4 7 mph 1011.6mb 57f 56f
9:00pm 0.3ft 4s 4
mph
1011.6mb 58f 56f
8:00pm 0.3ft 2s  -  2 mph 1011.6mb 59f 56f
7:00pm 0.3ft 4s 2
mph
1011.8mb 59f 58f
6:00pm 0.3ft 5s  -  mph 1012.5mb 55f 61f
5:00pm 0.3ft 7s  -  mph 1013.2mb 55f 59f
4:00pm 0.3ft 2s 4
mph
1014.1mb 57f 56f
3:00pm 0.3ft 2s 2 4 mph 1014.8mb 58f 56f
2:00pm 0.7ft 2s 4 7 mph 1015.5mb 57f 54f
1:00pm 0.7ft 2s 7 9 mph 1016.4mb 55f 53f
12:00pm 0.7ft 3s 4 7 mph 1016.9mb 54f 52f
11:00am 0.7ft 3s 9
mph
1017.4mb 54f 51f
10:00am 1ft 3s 9 11 mph 1017.4mb 53f 51f
9:00am 1ft 3s 9 11 mph 1017.3mb 53f 50f
8:00am 1.3ft 3s 11 13 mph 1017.4mb 52f 51f
7:00am 1.3ft 4s 11 13 mph 1017mb 52f 51f
6:00am 1.3ft 3s 7 9 mph 1016.9mb 52f 51f
5:00am 1.3ft 4s 13 16 mph 1016.3mb 52f 51f
4:00am 1ft 3s 11 13 mph 1016.3mb 52f 52f
3:00am 1ft 3s 11 13 mph 1016.4mb 52f 52f
2:00am 1ft 3s 9
mph
1016.5mb 52f 52f
1:00am 0.7ft 2s 13 16 mph 1016.3mb 52f 53f
12:00am 0.7ft 2s 11 13 mph 1016.7mb 53f 53f
Sat 05/02 11:00pm 1ft 2s 13 16 mph 1016.7mb 52f 54f
10:00pm 0.7ft 2s 11 13 mph 1016.7mb 53f 54f
9:00pm 1ft 3s 11 13 mph 1016.4mb 51f 54f
8:00pm 0.7ft 2s 11 13 mph 1016.1mb 52f 54f
7:00pm 0.7ft 3s 11
mph
1016.4mb 52f 54f
6:00pm 0.7ft 3s 11
mph
1016.8mb 52f 54f
5:00pm 1ft 3s 9 11 mph 1017.4mb 52f 54f
4:00pm 1ft 3s 9
mph
1017.9mb 52f 53f
3:00pm 1.3ft 4s 9
mph
1018.6mb 52f 53f
2:00pm 1.6ft 4s 11 13 mph 1019.1mb 51f 51f
1:00pm 2ft 4s 13
mph
1019.6mb 51f 51f
12:00pm 2.5ft 4s 16 18 mph 1019.9mb 51f 50f
11:00am 2.5ft 4s 16 18 mph 1020.2mb 51f 49f
10:00am 2ft 4s 16 18 mph 1020mb 51f 49f